createdAt,value
2022-10-22T00:02:27.795Z,15.07
2022-10-22T00:04:54.579Z,15.09
2022-10-22T00:07:21.246Z,15.11
2022-10-22T00:09:47.645Z,15.13
2022-10-22T00:12:15.384Z,15.15
2022-10-22T00:14:42.735Z,15.14
2022-10-22T00:17:11.626Z,15.15
2022-10-22T00:19:39.153Z,15.14
2022-10-22T00:22:06.087Z,15.13
2022-10-22T00:24:36.790Z,15.14
2022-10-22T00:27:03.968Z,15.13
2022-10-22T00:29:30.457Z,15.14
2022-10-22T00:31:57.050Z,15.17
2022-10-22T00:34:23.937Z,15.22
2022-10-22T00:36:51.211Z,15.26
2022-10-22T00:39:20.409Z,15.28
2022-10-22T00:41:48.687Z,15.29
2022-10-22T00:44:52.537Z,15.30
2022-10-22T00:47:20.969Z,15.30
2022-10-22T00:49:48.034Z,15.30
2022-10-22T00:52:14.584Z,15.31
2022-10-22T00:54:42.483Z,15.30
2022-10-22T00:57:09.693Z,15.28
2022-10-22T00:59:37.673Z,15.26
2022-10-22T01:02:04.236Z,15.24
2022-10-22T01:04:30.647Z,15.21
2022-10-22T01:06:57.147Z,15.20
2022-10-22T01:09:46.761Z,15.18
2022-10-22T01:12:31.892Z,15.15
2022-10-22T01:15:11.579Z,15.11
2022-10-22T01:17:56.019Z,15.10
2022-10-22T01:20:50.449Z,15.11
2022-10-22T01:23:49.342Z,15.13
2022-10-22T01:26:21.683Z,15.14
2022-10-22T01:29:07.286Z,15.17
2022-10-22T01:31:40.113Z,15.21
2022-10-22T01:34:08.242Z,15.23
2022-10-22T01:36:37.518Z,15.24
2022-10-22T01:39:05.549Z,15.25
2022-10-22T01:41:32.121Z,15.29
2022-10-22T01:43:58.525Z,15.29
2022-10-22T01:46:28.023Z,15.31
2022-10-22T01:49:03.245Z,15.30
2022-10-22T01:51:38.832Z,15.30
2022-10-22T01:54:33.861Z,15.28
2022-10-22T01:57:28.523Z,15.25
2022-10-22T02:00:06.262Z,15.23
2022-10-22T02:02:35.802Z,15.24
2022-10-22T02:05:16.940Z,15.23
2022-10-22T02:07:58.187Z,15.26
2022-10-22T02:10:25.109Z,15.26
2022-10-22T02:12:55.872Z,15.28
2022-10-22T02:15:25.638Z,15.28
2022-10-22T02:17:55.911Z,15.28
2022-10-22T02:20:27.750Z,15.28
2022-10-22T02:22:55.476Z,15.25
2022-10-22T02:25:23.632Z,15.25
2022-10-22T02:27:58.576Z,15.23
2022-10-22T02:30:25.002Z,15.21
2022-10-22T02:33:02.798Z,15.20
2022-10-22T02:35:30.259Z,15.15
2022-10-22T02:37:58.944Z,15.12
2022-10-22T02:40:26.206Z,15.09
2022-10-22T02:42:53.199Z,15.09
2022-10-22T02:45:20.396Z,15.08
2022-10-22T02:47:47.339Z,15.07
2022-10-22T02:50:13.792Z,15.07
2022-10-22T02:52:40.428Z,15.08
2022-10-22T02:55:07.803Z,15.09
2022-10-22T02:57:34.222Z,15.09
2022-10-22T03:00:00.643Z,15.09
2022-10-22T03:02:27.077Z,15.08
2022-10-22T03:04:53.437Z,15.08
2022-10-22T03:07:19.963Z,15.04
2022-10-22T03:09:46.650Z,15.02
2022-10-22T03:12:13.051Z,14.99
2022-10-22T03:14:39.451Z,14.96
2022-10-22T03:17:05.881Z,14.94
2022-10-22T03:19:32.339Z,14.92
2022-10-22T03:22:10.117Z,14.87
2022-10-22T03:24:39.776Z,14.83
2022-10-22T03:27:06.290Z,14.79
2022-10-22T03:29:36.050Z,14.77
2022-10-22T03:32:02.613Z,14.72
2022-10-22T03:34:29.016Z,14.72
2022-10-22T03:36:58.143Z,14.72
2022-10-22T03:39:24.830Z,14.69
2022-10-22T03:41:52.546Z,14.67
2022-10-22T03:44:20.731Z,14.63
2022-10-22T03:46:47.157Z,14.60
2022-10-22T03:49:13.511Z,14.57
2022-10-22T03:51:39.953Z,14.54
2022-10-22T03:54:06.473Z,14.51
2022-10-22T03:56:33.079Z,14.49
2022-10-22T03:59:00.989Z,14.45
2022-10-22T04:01:29.900Z,14.43
2022-10-22T04:03:56.797Z,14.38
2022-10-22T04:06:23.856Z,14.35
2022-10-22T04:08:50.264Z,14.31
2022-10-22T04:11:17.165Z,14.28
2022-10-22T04:13:44.278Z,14.27
2022-10-22T04:16:20.856Z,14.24
2022-10-22T04:18:49.195Z,14.22
2022-10-22T04:21:17.740Z,14.20
2022-10-22T04:23:46.205Z,14.19
2022-10-22T04:26:12.868Z,14.17
2022-10-22T04:28:39.580Z,14.14
2022-10-22T04:31:14.951Z,14.12
2022-10-22T04:33:41.866Z,14.12
2022-10-22T04:36:14.268Z,14.11
2022-10-22T04:38:42.304Z,14.07
2022-10-22T04:41:30.970Z,14.04
2022-10-22T04:43:58.352Z,14.01
2022-10-22T04:46:26.572Z,14.00
2022-10-22T04:48:53.450Z,13.99
2022-10-22T04:51:22.157Z,13.96
2022-10-22T04:53:48.737Z,13.93
2022-10-22T04:56:25.048Z,13.88
2022-10-22T04:58:54.865Z,13.87
2022-10-22T05:01:24.031Z,13.86
2022-10-22T05:03:52.432Z,13.87
2022-10-22T05:06:20.979Z,13.86
2022-10-22T05:08:48.829Z,13.86
2022-10-22T05:11:20.565Z,13.83
2022-10-22T05:13:47.586Z,13.81
2022-10-22T05:16:14.506Z,13.79
2022-10-22T05:18:43.054Z,13.78
2022-10-22T05:21:18.696Z,13.75
2022-10-22T05:23:46.853Z,13.73
2022-10-22T05:26:15.147Z,13.72
2022-10-22T05:28:41.805Z,13.71
2022-10-22T05:31:10.581Z,13.70
2022-10-22T05:33:37.092Z,13.70
2022-10-22T05:36:05.687Z,13.71
2022-10-22T05:38:33.579Z,13.70
2022-10-22T05:41:11.413Z,13.70
2022-10-22T05:43:38.092Z,13.71
2022-10-22T05:46:07.349Z,13.72
2022-10-22T05:48:34.075Z,13.73
2022-10-22T05:51:05.494Z,13.75
2022-10-22T05:53:32.988Z,13.74
2022-10-22T05:56:03.720Z,13.76
2022-10-22T05:58:30.332Z,13.76
2022-10-22T06:01:27.802Z,13.75
2022-10-22T06:03:56.876Z,13.77
2022-10-22T06:06:30.886Z,13.76
2022-10-22T06:09:20.248Z,13.75
2022-10-22T06:11:48.250Z,13.75
2022-10-22T06:14:14.840Z,13.74
2022-10-22T06:16:41.309Z,13.75
2022-10-22T06:19:08.078Z,13.79
2022-10-22T06:21:34.430Z,13.79
2022-10-22T06:24:01.518Z,13.80
2022-10-22T06:26:28.289Z,13.79
2022-10-22T06:28:56.156Z,13.78
2022-10-22T06:31:23.418Z,13.78
2022-10-22T06:33:49.834Z,13.77
2022-10-22T06:36:19.335Z,13.78
2022-10-22T06:38:45.901Z,13.81
2022-10-22T06:41:14.860Z,13.85
2022-10-22T06:43:45.231Z,13.89
2022-10-22T06:46:14.903Z,13.94
2022-10-22T06:48:49.691Z,14.00
2022-10-22T06:51:16.090Z,14.03
2022-10-22T06:53:42.605Z,14.05
2022-10-22T06:56:11.862Z,14.08
2022-10-22T06:58:38.941Z,14.10
2022-10-22T07:01:11.504Z,14.14
2022-10-22T07:03:39.093Z,14.15
2022-10-22T07:06:10.205Z,14.19
2022-10-22T07:08:38.231Z,14.22
2022-10-22T07:11:10.193Z,14.25
2022-10-22T07:13:36.925Z,14.28
2022-10-22T07:16:04.593Z,14.31
2022-10-22T07:18:31.895Z,14.34
2022-10-22T07:20:58.397Z,14.38
2022-10-22T07:23:25.037Z,14.40
2022-10-22T07:25:51.532Z,14.45
2022-10-22T07:28:18.145Z,14.50
2022-10-22T07:30:44.625Z,14.55
2022-10-22T07:33:11.495Z,14.61
2022-10-22T07:35:39.887Z,14.69
2022-10-22T07:38:07.735Z,14.77
2022-10-22T07:40:35.092Z,14.84
2022-10-22T07:43:02.050Z,14.92
2022-10-22T07:45:28.676Z,15.00
2022-10-22T07:47:55.207Z,15.09
2022-10-22T07:50:21.800Z,15.18
2022-10-22T07:52:48.353Z,15.28
2022-10-22T07:55:14.834Z,15.38
2022-10-22T07:57:41.325Z,15.51
2022-10-22T08:00:09.032Z,15.63
2022-10-22T08:02:35.542Z,15.76
2022-10-22T08:05:01.965Z,15.87
2022-10-22T08:07:28.478Z,16.00
2022-10-22T08:09:55.004Z,16.11
2022-10-22T08:12:21.597Z,16.20
2022-10-22T08:14:48.003Z,16.26
2022-10-22T08:17:15.685Z,16.37
2022-10-22T08:19:42.110Z,16.42
2022-10-22T08:22:09.869Z,16.51
2022-10-22T08:24:36.280Z,16.60
2022-10-22T08:27:02.756Z,16.66
2022-10-22T08:29:29.172Z,16.70
2022-10-22T08:31:55.566Z,16.77
2022-10-22T08:34:21.964Z,16.82
2022-10-22T08:36:48.444Z,16.86
2022-10-22T08:39:14.961Z,16.90
2022-10-22T08:41:47.606Z,16.94
2022-10-22T08:44:32.802Z,16.95
2022-10-22T08:47:30.849Z,17.03
2022-10-22T08:49:59.938Z,17.09
2022-10-22T08:52:26.507Z,17.09
2022-10-22T08:54:56.014Z,17.14
2022-10-22T08:57:56.593Z,17.18
2022-10-22T09:00:55.431Z,17.27
2022-10-22T09:03:51.035Z,17.38
2022-10-22T09:06:22.809Z,17.43
2022-10-22T09:08:50.186Z,17.44
2022-10-22T09:11:30.509Z,17.42
2022-10-22T09:13:58.486Z,17.50
2022-10-22T09:16:38.539Z,17.52
2022-10-22T09:19:32.923Z,17.56
2022-10-22T09:22:14.267Z,17.62
2022-10-22T09:24:52.463Z,17.57
2022-10-22T09:27:25.859Z,17.58
2022-10-22T09:29:52.287Z,17.55
2022-10-22T09:32:19.517Z,17.55
2022-10-22T09:34:49.766Z,17.52
2022-10-22T09:37:19.050Z,17.48
2022-10-22T09:39:50.841Z,17.45
2022-10-22T09:42:20.034Z,17.47
2022-10-22T09:44:55.366Z,17.42
2022-10-22T09:47:43.013Z,17.46
2022-10-22T09:50:44.196Z,17.51
2022-10-22T09:53:23.283Z,17.47
2022-10-22T09:56:01.035Z,17.52
2022-10-22T09:58:28.389Z,17.58
2022-10-22T10:00:58.353Z,17.62
2022-10-22T10:03:28.056Z,17.65
2022-10-22T10:06:01.391Z,17.72
2022-10-22T10:08:31.479Z,17.80
2022-10-22T10:11:29.113Z,17.85
2022-10-22T10:14:21.601Z,17.85
2022-10-22T10:17:39.754Z,17.90
2022-10-22T10:20:29.494Z,17.90
2022-10-22T10:23:04.756Z,17.91
2022-10-22T10:26:09.467Z,17.94
2022-10-22T10:28:57.227Z,17.91
2022-10-22T10:31:41.787Z,17.94
2022-10-22T10:34:20.511Z,18.00
2022-10-22T10:37:34.448Z,17.99
2022-10-22T10:40:03.604Z,18.00
2022-10-22T10:42:51.755Z,17.98
2022-10-22T10:45:41.588Z,17.93
2022-10-22T10:48:08.225Z,17.99
2022-10-22T10:50:50.213Z,18.02
2022-10-22T10:53:48.821Z,18.00
2022-10-22T10:56:53.008Z,18.07
2022-10-22T10:59:37.287Z,18.13
2022-10-22T11:02:29.740Z,18.22
2022-10-22T11:05:14.331Z,18.29
2022-10-22T11:07:47.944Z,18.42
2022-10-22T11:10:46.405Z,18.55
2022-10-22T11:13:24.820Z,18.63
2022-10-22T11:16:22.293Z,18.62
2022-10-22T11:18:58.287Z,18.70
2022-10-22T11:21:42.736Z,18.78
2022-10-22T11:24:35.665Z,18.87
2022-10-22T11:27:14.933Z,19.00
2022-10-22T11:29:46.359Z,19.10
2022-10-22T11:32:20.157Z,19.23
2022-10-22T11:35:08.993Z,19.29
2022-10-22T11:37:39.068Z,19.33
2022-10-22T11:40:18.423Z,19.23
2022-10-22T11:42:49.673Z,19.16
2022-10-22T11:45:15.982Z,19.12
2022-10-22T11:48:14.882Z,19.15
2022-10-22T11:50:41.217Z,19.14
2022-10-22T11:53:13.593Z,19.12
2022-10-22T11:55:45.396Z,19.13
2022-10-22T11:58:30.496Z,19.12
2022-10-22T12:01:02.675Z,19.08
2022-10-22T12:03:31.886Z,19.14
2022-10-22T12:06:15.308Z,19.11
2022-10-22T12:08:45.961Z,19.16
2022-10-22T12:11:12.302Z,19.36
2022-10-22T12:14:03.821Z,19.89
2022-10-22T12:16:54.641Z,20.08
2022-10-22T12:19:22.031Z,20.52
2022-10-22T12:21:53.224Z,20.87
2022-10-22T12:24:23.057Z,21.09
2022-10-22T12:26:52.435Z,21.12
2022-10-22T12:29:23.730Z,21.14
2022-10-22T12:31:50.348Z,21.19
2022-10-22T12:34:21.375Z,21.05
2022-10-22T12:36:50.396Z,20.86
2022-10-22T12:39:20.593Z,20.71
2022-10-22T12:41:47.154Z,20.47
2022-10-22T12:44:17.973Z,20.38
2022-10-22T12:46:48.026Z,20.41
2022-10-22T12:49:21.724Z,20.31
2022-10-22T12:51:49.147Z,20.27
2022-10-22T12:54:35.250Z,20.23
2022-10-22T12:57:02.404Z,20.22
2022-10-22T12:59:38.625Z,20.18
2022-10-22T13:02:18.918Z,20.15
2022-10-22T13:05:24.865Z,20.00
2022-10-22T13:08:03.266Z,19.99
2022-10-22T13:10:56.219Z,19.82
2022-10-22T13:14:01.549Z,19.70
2022-10-22T13:16:30.035Z,19.74
2022-10-22T13:18:56.512Z,19.73
2022-10-22T13:21:39.228Z,19.74
2022-10-22T13:24:24.727Z,19.81
2022-10-22T13:26:53.741Z,19.87
2022-10-22T13:29:22.634Z,19.87
2022-10-22T13:31:52.082Z,19.86
2022-10-22T13:34:22.300Z,19.87
2022-10-22T13:36:49.500Z,19.88
2022-10-22T13:39:20.934Z,19.78
2022-10-22T13:41:50.172Z,19.82
2022-10-22T13:44:18.434Z,19.87
2022-10-22T13:46:45.467Z,19.87
2022-10-22T13:49:17.891Z,19.92
2022-10-22T13:51:44.695Z,19.99
2022-10-22T13:54:16.910Z,20.01
2022-10-22T13:56:43.276Z,19.99
2022-10-22T13:59:10.427Z,19.97
2022-10-22T14:01:37.679Z,19.93
2022-10-22T14:04:07.596Z,19.87
2022-10-22T14:09:11.197Z,19.89
2022-10-22T14:11:37.741Z,19.88
2022-10-22T14:14:08.588Z,19.88
2022-10-22T14:16:37.159Z,19.89
2022-10-22T14:19:04.944Z,19.87
2022-10-22T14:21:35.985Z,19.88
2022-10-22T14:24:02.434Z,19.81
2022-10-22T14:26:33.079Z,19.80
2022-10-22T14:29:09.909Z,19.76
2022-10-22T14:34:13.541Z,19.85
2022-10-22T14:36:40.188Z,19.88
2022-10-22T14:39:06.727Z,19.89
2022-10-22T14:41:33.494Z,19.88
2022-10-22T14:44:00.071Z,19.88
2022-10-22T14:46:26.650Z,19.92
2022-10-22T14:48:53.186Z,19.97
2022-10-22T14:51:21.563Z,20.04
2022-10-22T14:53:48.622Z,20.09
2022-10-22T14:56:17.935Z,20.33
2022-10-22T14:58:45.710Z,20.59
2022-10-22T15:01:12.584Z,20.81
2022-10-22T15:03:39.058Z,20.93
2022-10-22T15:06:05.942Z,20.86
2022-10-22T15:08:32.426Z,20.90
2022-10-22T15:11:00.634Z,20.95
2022-10-22T15:13:28.977Z,20.92
2022-10-22T15:15:56.224Z,21.00
2022-10-22T15:18:23.369Z,21.17
2022-10-22T15:21:01.245Z,21.35
2022-10-22T15:23:28.294Z,21.46
2022-10-22T15:25:55.387Z,21.54
2022-10-22T15:28:22.057Z,21.56
2022-10-22T15:31:00.033Z,21.51
2022-10-22T15:33:28.467Z,21.46
2022-10-22T15:35:55.832Z,21.44
2022-10-22T15:38:26.569Z,21.34
2022-10-22T15:41:05.511Z,21.19
2022-10-22T15:43:33.063Z,20.99
2022-10-22T15:46:18.435Z,20.82
2022-10-22T15:48:45.831Z,20.63
2022-10-22T15:51:18.038Z,20.48
2022-10-22T15:53:50.520Z,20.34
2022-10-22T15:56:16.932Z,20.24
2022-10-22T15:58:43.357Z,20.14
2022-10-22T16:01:12.978Z,20.04
2022-10-22T16:03:40.354Z,19.88
2022-10-22T16:06:08.164Z,19.70
2022-10-22T16:08:35.263Z,19.52
2022-10-22T16:11:01.685Z,19.33
2022-10-22T16:13:28.113Z,19.13
2022-10-22T16:15:54.510Z,18.94
2022-10-22T16:18:21.492Z,18.78
2022-10-22T16:20:47.918Z,18.61
2022-10-22T16:23:18.459Z,18.46
2022-10-22T16:25:45.983Z,18.30
2022-10-22T16:28:12.737Z,18.17
2022-10-22T16:30:39.392Z,18.02
2022-10-22T16:33:07.336Z,17.89
2022-10-22T16:35:33.993Z,17.75
2022-10-22T16:38:00.431Z,17.65
2022-10-22T16:40:27.063Z,17.54
2022-10-22T16:42:53.453Z,17.45
2022-10-22T16:45:19.815Z,17.37
2022-10-22T16:47:46.971Z,17.28
2022-10-22T16:50:13.509Z,17.23
2022-10-22T16:52:39.914Z,17.16
2022-10-22T16:55:06.637Z,17.08
2022-10-22T16:57:33.935Z,17.01
2022-10-22T17:00:00.399Z,16.96
2022-10-22T17:02:26.769Z,16.91
2022-10-22T17:04:53.170Z,16.86
2022-10-22T17:07:19.590Z,16.82
2022-10-22T17:09:45.948Z,16.75
2022-10-22T17:12:12.470Z,16.72
2022-10-22T17:14:39.026Z,16.66
2022-10-22T17:17:05.421Z,16.63
2022-10-22T17:19:31.940Z,16.58
2022-10-22T17:21:58.312Z,16.53
2022-10-22T17:24:24.702Z,16.48
2022-10-22T17:26:51.203Z,16.41
2022-10-22T17:29:18.027Z,16.37
2022-10-22T17:31:44.446Z,16.31
2022-10-22T17:34:16.145Z,16.24
2022-10-22T17:36:43.216Z,16.18
2022-10-22T17:39:15.950Z,16.12
2022-10-22T17:41:42.382Z,16.03
2022-10-22T17:44:09.205Z,16.00
2022-10-22T17:46:36.055Z,15.98
2022-10-22T17:49:05.098Z,15.94
2022-10-22T17:51:31.771Z,15.91
2022-10-22T17:53:58.641Z,15.86
2022-10-22T17:56:27.752Z,15.83
2022-10-22T17:58:54.565Z,15.78
2022-10-22T18:01:24.851Z,15.74
2022-10-22T18:03:52.784Z,15.70
2022-10-22T18:06:19.721Z,15.67
2022-10-22T18:08:46.256Z,15.64
2022-10-22T18:11:16.447Z,15.64
2022-10-22T18:13:42.891Z,15.58
2022-10-22T18:16:09.360Z,15.56
2022-10-22T18:18:36.739Z,15.54
2022-10-22T18:21:03.815Z,15.50
2022-10-22T18:23:30.225Z,15.46
2022-10-22T18:25:56.647Z,15.42
2022-10-22T18:28:23.181Z,15.39
2022-10-22T18:30:50.791Z,15.35
2022-10-22T18:33:18.879Z,15.31
2022-10-22T18:35:48.277Z,15.28
2022-10-22T18:38:14.696Z,15.22
2022-10-22T18:40:48.545Z,15.19
2022-10-22T18:43:16.201Z,15.16
2022-10-22T18:45:43.925Z,15.14
2022-10-22T18:48:10.953Z,15.10
2022-10-22T18:50:37.445Z,15.08
2022-10-22T18:53:03.997Z,15.05
2022-10-22T18:55:30.839Z,15.02
2022-10-22T18:57:57.221Z,15.01
2022-10-22T19:00:26.368Z,14.99
2022-10-22T19:02:54.025Z,14.95
2022-10-22T19:05:20.691Z,14.94
2022-10-22T19:07:48.671Z,14.92
2022-10-22T19:10:15.130Z,14.91
2022-10-22T19:12:41.594Z,14.88
2022-10-22T19:15:08.406Z,14.84
2022-10-22T19:17:35.070Z,14.81
2022-10-22T19:20:01.591Z,14.77
2022-10-22T19:22:28.049Z,14.74
2022-10-22T19:24:54.551Z,14.71
2022-10-22T19:27:20.990Z,14.70
2022-10-22T19:29:49.381Z,14.69
2022-10-22T19:32:16.746Z,14.68
2022-10-22T19:34:43.132Z,14.65
2022-10-22T19:37:09.504Z,14.62
2022-10-22T19:39:36.024Z,14.59
2022-10-22T19:42:04.141Z,14.58
2022-10-22T19:44:31.077Z,14.56
2022-10-22T19:46:57.447Z,14.51
2022-10-22T19:49:24.342Z,14.48
2022-10-22T19:51:50.790Z,14.44
2022-10-22T19:54:19.545Z,14.42
2022-10-22T19:56:46.675Z,14.41
2022-10-22T19:59:15.486Z,14.39
2022-10-22T20:01:42.282Z,14.37
2022-10-22T20:04:13.882Z,14.34
2022-10-22T20:06:40.309Z,14.33
2022-10-22T20:09:06.702Z,14.33
2022-10-22T20:11:33.153Z,14.34
2022-10-22T20:13:59.549Z,14.34
2022-10-22T20:16:29.550Z,14.35
2022-10-22T20:19:00.539Z,14.34
2022-10-22T20:21:27.439Z,14.31
2022-10-22T20:23:56.514Z,14.30
2022-10-22T20:26:24.423Z,14.27
2022-10-22T20:28:51.909Z,14.26
2022-10-22T20:31:20.572Z,14.26
2022-10-22T20:33:47.998Z,14.27
2022-10-22T20:36:17.600Z,14.26
2022-10-22T20:38:45.360Z,14.25
2022-10-22T20:41:14.114Z,14.24
2022-10-22T20:43:43.561Z,14.23
2022-10-22T20:46:16.793Z,14.22
2022-10-22T20:48:43.492Z,14.21
2022-10-22T20:51:09.965Z,14.22
2022-10-22T20:53:36.380Z,14.20
2022-10-22T20:56:02.923Z,14.18
2022-10-22T20:58:30.733Z,14.18
2022-10-22T21:00:58.995Z,14.13
2022-10-22T21:03:25.417Z,14.13
2022-10-22T21:05:51.823Z,14.13
2022-10-22T21:08:18.259Z,14.13
2022-10-22T21:10:49.094Z,14.12
2022-10-22T21:13:16.822Z,14.11
2022-10-22T21:15:43.246Z,14.10
2022-10-22T21:18:09.698Z,14.06
2022-10-22T21:20:36.157Z,14.03
2022-10-22T21:23:02.545Z,14.01
2022-10-22T21:25:28.987Z,13.99
2022-10-22T21:27:55.448Z,13.97
2022-10-22T21:30:21.855Z,13.94
2022-10-22T21:32:48.242Z,13.89
2022-10-22T21:35:14.742Z,13.86
2022-10-22T21:37:41.428Z,13.83
2022-10-22T21:40:08.643Z,13.79
2022-10-22T21:42:35.043Z,13.77
2022-10-22T21:45:01.587Z,13.74
2022-10-22T21:47:28.150Z,13.70
2022-10-22T21:49:54.761Z,13.67
2022-10-22T21:52:21.242Z,13.63
2022-10-22T21:54:47.649Z,13.60
2022-10-22T21:57:14.017Z,13.56
2022-10-22T21:59:40.526Z,13.53
2022-10-22T22:02:07.062Z,13.49
2022-10-22T22:04:33.773Z,13.48
2022-10-22T22:07:00.241Z,13.46
2022-10-22T22:09:26.705Z,13.48
2022-10-22T22:11:53.075Z,13.47
2022-10-22T22:14:19.488Z,13.48
2022-10-22T22:16:45.898Z,13.47
2022-10-22T22:19:12.458Z,13.47
2022-10-22T22:21:40.363Z,13.48
2022-10-22T22:24:07.748Z,13.45
2022-10-22T22:26:34.426Z,13.46
2022-10-22T22:29:01.188Z,13.45
2022-10-22T22:31:33.170Z,13.44
2022-10-22T22:34:08.537Z,13.42
2022-10-22T22:36:40.481Z,13.38
2022-10-22T22:39:08.959Z,13.33
2022-10-22T22:41:35.413Z,13.29
2022-10-22T22:44:02.005Z,13.27
2022-10-22T22:46:28.503Z,13.25
2022-10-22T22:48:55.015Z,13.24
2022-10-22T22:51:21.443Z,13.24
2022-10-22T22:53:48.005Z,13.23
2022-10-22T22:56:25.840Z,13.20
2022-10-22T22:58:52.239Z,13.21
2022-10-22T23:01:26.653Z,13.18
2022-10-22T23:04:16.336Z,13.15
2022-10-22T23:06:42.946Z,13.14
2022-10-22T23:09:11.584Z,13.12
2022-10-22T23:11:39.541Z,13.09
2022-10-22T23:14:07.339Z,13.07
2022-10-22T23:16:36.710Z,13.08
2022-10-22T23:19:04.564Z,13.05
2022-10-22T23:21:36.813Z,13.03
2022-10-22T23:24:07.365Z,13.00
2022-10-22T23:26:36.951Z,12.98
2022-10-22T23:29:14.006Z,12.93
2022-10-22T23:31:41.122Z,12.88
2022-10-22T23:34:08.297Z,12.87
2022-10-22T23:36:36.814Z,12.85
2022-10-22T23:39:05.510Z,12.81
2022-10-22T23:41:32.040Z,12.76
2022-10-22T23:43:58.854Z,12.75
2022-10-22T23:46:25.357Z,12.73
2022-10-22T23:48:53.723Z,12.69
2022-10-22T23:51:21.186Z,12.68
2022-10-22T23:53:53.074Z,12.68
2022-10-22T23:56:19.548Z,12.66
2022-10-22T23:58:51.439Z,12.67
